Time;durP1;ratioP1;P1;durP2;ratioP2;P2;SDS_P1;SDS_P2;PMS_P1;PMS_P2;Temp;Humidity;BMP_temperature;BMP_pressure;BME280_temperature;BME280_humidity;BME280_pressure;Samples;Min_cycle;Max_cycle;Signal;HPM_P1;HPM_P2
2023/05/25 00:00:19;;;;;;;5.00;1.55;;;;;;;;;;6282299;22;20041;-83
2023/05/25 00:02:45;;;;;;;5.05;1.40;;;;;;;;;;6281737;22;20044;-83
2023/05/25 00:05:13;;;;;;;5.72;1.90;;;;;;;;;;6282005;22;20160;-83
2023/05/25 00:07:39;;;;;;;6.47;1.92;;;;;;;;;;6281798;22;20106;-83
2023/05/25 00:10:06;;;;;;;5.82;2.20;;;;;;;;;;6307057;22;20022;-83
2023/05/25 00:12:33;;;;;;;4.68;1.80;;;;;;;;;;6281792;22;20094;-83
2023/05/25 00:14:59;;;;;;;5.13;2.00;;;;;;;;;;6281386;22;20362;-84
2023/05/25 00:17:30;;;;;;;3.75;2.10;;;;;;;;;;6281752;22;20061;-83
2023/05/25 00:19:57;;;;;;;3.70;1.92;;;;;;;;;;6281777;22;20026;-83
2023/05/25 00:22:27;;;;;;;5.80;1.75;;;;;;;;;;6282743;22;20054;-83
2023/05/25 00:24:54;;;;;;;4.13;1.90;;;;;;;;;;6282192;22;20015;-83
2023/05/25 00:27:20;;;;;;;4.32;1.85;;;;;;;;;;6281644;22;20053;-83
2023/05/25 00:29:46;;;;;;;6.22;2.22;;;;;;;;;;6281862;22;20091;-83
2023/05/25 00:32:12;;;;;;;6.75;2.78;;;;;;;;;;6281555;22;20016;-83
2023/05/25 00:34:38;;;;;;;7.03;2.20;;;;;;;;;;6281615;22;20353;-84
2023/05/25 00:37:04;;;;;;;5.15;2.17;;;;;;;;;;6281672;22;20443;-84
2023/05/25 00:39:30;;;;;;;4.68;2.53;;;;;;;;;;6281739;22;20051;-83
2023/05/25 00:41:57;;;;;;;5.07;2.05;;;;;;;;;;6281647;22;20015;-83
2023/05/25 00:44:23;;;;;;;5.38;2.33;;;;;;;;;;6281634;22;20015;-83
2023/05/25 00:46:54;;;;;;;4.55;1.80;;;;;;;;;;6281685;22;20019;-83
2023/05/25 00:49:21;;;;;;;3.97;1.85;;;;;;;;;;6281449;22;20322;-84
2023/05/25 00:51:48;;;;;;;6.75;2.42;;;;;;;;;;6282387;22;20015;-83
2023/05/25 00:54:34;;;;;;;6.78;3.15;;;;;;;;;;6282362;22;20176;-83
2023/05/25 00:57:02;;;;;;;4.60;2.17;;;;;;;;;;6281349;22;20015;-84
2023/05/25 00:59:39;;;;;;;5.15;2.75;;;;;;;;;;6307145;22;20129;-83
2023/05/25 01:02:07;;;;;;;5.28;2.45;;;;;;;;;;6281664;22;20015;-84
2023/05/25 01:04:34;;;;;;;6.07;2.45;;;;;;;;;;6281372;22;20016;-83
2023/05/25 01:07:02;;;;;;;7.95;3.13;;;;;;;;;;6281640;22;20019;-83
2023/05/25 01:09:29;;;;;;;6.50;3.03;;;;;;;;;;6281307;22;20449;-84
2023/05/25 01:11:56;;;;;;;4.75;2.38;;;;;;;;;;6281407;22;20019;-84
2023/05/25 01:14:23;;;;;;;2.47;2.25;;;;;;;;;;6281719;22;20028;-83
2023/05/25 01:16:50;;;;;;;8.80;3.65;;;;;;;;;;6281303;22;20015;-84
2023/05/25 01:19:17;;;;;;;4.25;2.33;;;;;;;;;;6308140;22;20011;-84
2023/05/25 01:21:52;;;;;;;4.80;1.90;;;;;;;;;;6281670;22;20019;-84
2023/05/25 01:24:29;;;;;;;7.95;2.35;;;;;;;;;;6282346;22;20015;-84
2023/05/25 01:27:00;;;;;;;6.00;2.92;;;;;;;;;;6307641;22;20322;-84
2023/05/25 01:29:27;;;;;;;5.30;2.25;;;;;;;;;;6280970;22;20054;-84
2023/05/25 01:31:55;;;;;;;5.90;2.50;;;;;;;;;;6307010;22;20464;-84
2023/05/25 01:34:21;;;;;;;4.97;2.75;;;;;;;;;;6307917;22;20019;-84
2023/05/25 01:36:47;;;;;;;7.50;2.50;;;;;;;;;;6281276;22;20429;-84
2023/05/25 01:39:13;;;;;;;8.15;3.25;;;;;;;;;;6281029;22;20019;-84
2023/05/25 01:41:40;;;;;;;9.50;2.83;;;;;;;;;;6282050;22;20019;-84
2023/05/25 01:44:06;;;;;;;7.90;3.08;;;;;;;;;;6281130;22;20076;-84
2023/05/25 01:46:39;;;;;;;8.70;3.22;;;;;;;;;;6281158;22;20369;-85
2023/05/25 01:49:23;;;;;;;6.88;3.03;;;;;;;;;;6281028;22;20019;-85
2023/05/25 01:52:10;;;;;;;7.38;3.10;;;;;;;;;;6307814;22;20081;-83
2023/05/25 01:54:39;;;;;;;7.07;2.42;;;;;;;;;;6281169;22;20026;-83
2023/05/25 01:57:12;;;;;;;6.47;2.85;;;;;;;;;;6280849;22;20453;-83
2023/05/25 01:59:38;;;;;;;5.20;2.40;;;;;;;;;;6280879;22;20022;-83
2023/05/25 02:02:05;;;;;;;5.47;2.03;;;;;;;;;;6280697;22;20050;-83
2023/05/25 02:04:31;;;;;;;6.22;2.88;;;;;;;;;;6280885;22;20026;-83
2023/05/25 02:06:57;;;;;;;7.53;3.50;;;;;;;;;;6280694;22;20058;-83
2023/05/25 02:09:23;;;;;;;7.40;3.60;;;;;;;;;;6281882;22;20037;-83
2023/05/25 02:11:49;;;;;;;7.40;3.17;;;;;;;;;;6306425;22;20019;-84
2023/05/25 02:14:16;;;;;;;4.90;2.58;;;;;;;;;;6280918;22;20019;-83
2023/05/25 02:16:44;;;;;;;5.78;2.72;;;;;;;;;;6306833;22;20019;-83
2023/05/25 02:19:13;;;;;;;6.78;2.75;;;;;;;;;;6280769;22;20355;-83
2023/05/25 02:21:39;;;;;;;4.20;3.05;;;;;;;;;;6280796;22;20022;-83
2023/05/25 02:24:08;;;;;;;5.35;3.15;;;;;;;;;;6280338;22;20019;-83
2023/05/25 02:26:34;;;;;;;5.95;2.60;;;;;;;;;;6281033;22;20465;-83
2023/05/25 02:29:01;;;;;;;6.82;2.67;;;;;;;;;;6280765;22;20019;-83
2023/05/25 02:31:27;;;;;;;4.00;2.33;;;;;;;;;;6281696;22;20073;-84
2023/05/25 02:33:53;;;;;;;2.95;2.50;;;;;;;;;;6280642;22;20023;-83
2023/05/25 02:36:19;;;;;;;3.75;2.47;;;;;;;;;;6281542;22;20015;-83
2023/05/25 02:38:48;;;;;;;5.55;3.33;;;;;;;;;;6309577;22;20015;-83
2023/05/25 02:41:15;;;;;;;4.40;2.72;;;;;;;;;;6308620;22;20173;-84
2023/05/25 02:43:41;;;;;;;5.65;2.88;;;;;;;;;;6282351;22;20019;-83
2023/05/25 02:46:07;;;;;;;4.65;2.90;;;;;;;;;;6282877;22;20439;-83
2023/05/25 02:48:33;;;;;;;3.90;3.05;;;;;;;;;;6283862;22;20034;-83
2023/05/25 02:50:59;;;;;;;10.45;5.13;;;;;;;;;;6282444;22;20019;-83
2023/05/25 02:53:25;;;;;;;8.48;4.50;;;;;;;;;;6283105;22;20390;-83
2023/05/25 02:55:51;;;;;;;3.70;2.65;;;;;;;;;;6282648;22;20022;-84
2023/05/25 02:58:18;;;;;;;5.05;2.47;;;;;;;;;;6309417;22;20433;-83
2023/05/25 03:00:45;;;;;;;5.57;3.70;;;;;;;;;;6282639;22;20484;-84
2023/05/25 03:03:11;;;;;;;5.25;2.78;;;;;;;;;;6282562;22;20019;-84
2023/05/25 03:05:37;;;;;;;5.18;2.92;;;;;;;;;;6283553;22;20104;-84
2023/05/25 03:08:03;;;;;;;5.63;3.13;;;;;;;;;;6282508;22;20026;-84
2023/05/25 03:10:30;;;;;;;6.22;3.35;;;;;;;;;;6282827;22;20510;-83
2023/05/25 03:12:56;;;;;;;6.88;3.50;;;;;;;;;;6308291;22;20050;-83
2023/05/25 03:15:22;;;;;;;7.35;3.83;;;;;;;;;;6282549;22;20310;-83
2023/05/25 03:17:48;;;;;;;4.60;3.83;;;;;;;;;;6282491;22;20015;-84
2023/05/25 03:20:15;;;;;;;9.98;3.55;;;;;;;;;;6282780;22;20023;-83
2023/05/25 03:22:42;;;;;;;4.47;3.10;;;;;;;;;;6282380;22;20019;-84
2023/05/25 03:25:11;;;;;;;5.47;3.38;;;;;;;;;;6282303;22;20017;-84
2023/05/25 03:27:37;;;;;;;4.60;4.00;;;;;;;;;;6308159;22;20109;-84
2023/05/25 03:30:04;;;;;;;5.93;4.15;;;;;;;;;;6309121;22;20034;-84
2023/05/25 03:32:31;;;;;;;6.93;3.42;;;;;;;;;;6282410;22;20047;-84
2023/05/25 03:34:57;;;;;;;4.22;3.15;;;;;;;;;;6282566;22;20026;-84
2023/05/25 03:37:23;;;;;;;4.32;3.17;;;;;;;;;;6282658;22;20015;-84
2023/05/25 03:39:49;;;;;;;6.78;4.50;;;;;;;;;;6282329;22;20015;-83
2023/05/25 03:42:15;;;;;;;8.55;4.72;;;;;;;;;;6282535;22;20522;-83
2023/05/25 03:44:41;;;;;;;8.73;4.50;;;;;;;;;;6307959;22;20090;-83
2023/05/25 03:47:07;;;;;;;9.77;5.97;;;;;;;;;;6307890;22;20012;-83
2023/05/25 03:49:33;;;;;;;6.35;4.57;;;;;;;;;;6282540;22;20072;-83
2023/05/25 03:52:00;;;;;;;6.40;4.22;;;;;;;;;;6307772;22;20019;-83
2023/05/25 03:54:26;;;;;;;5.00;3.80;;;;;;;;;;6282019;22;20021;-83
2023/05/25 03:56:52;;;;;;;5.82;4.30;;;;;;;;;;6282958;22;20015;-83
2023/05/25 03:59:18;;;;;;;9.73;5.13;;;;;;;;;;6282021;22;20015;-83
2023/05/25 04:01:44;;;;;;;8.65;4.57;;;;;;;;;;6282352;22;20026;-83
2023/05/25 04:04:10;;;;;;;5.88;4.63;;;;;;;;;;6281738;22;20445;-83
2023/05/25 04:06:37;;;;;;;5.78;4.10;;;;;;;;;;6282711;22;20012;-83
2023/05/25 04:09:06;;;;;;;7.65;4.75;;;;;;;;;;6281253;22;20016;-83
2023/05/25 04:11:32;;;;;;;7.28;4.65;;;;;;;;;;6281223;22;20018;-83
2023/05/25 04:13:58;;;;;;;9.20;5.15;;;;;;;;;;6307630;22;20015;-83
2023/05/25 04:16:25;;;;;;;7.20;4.78;;;;;;;;;;6281805;22;20015;-83
2023/05/25 04:18:51;;;;;;;8.23;5.47;;;;;;;;;;6282037;22;20094;-83
2023/05/25 04:21:17;;;;;;;9.68;5.72;;;;;;;;;;6282694;22;20022;-83
2023/05/25 04:23:43;;;;;;;6.47;4.25;;;;;;;;;;6307505;22;20030;-83
2023/05/25 04:26:09;;;;;;;6.65;4.72;;;;;;;;;;6281578;22;20015;-83
2023/05/25 04:28:36;;;;;;;6.95;4.90;;;;;;;;;;6281360;22;20022;-84
2023/05/25 04:31:02;;;;;;;5.60;4.53;;;;;;;;;;6281544;22;20374;-83
2023/05/25 04:33:28;;;;;;;5.63;4.80;;;;;;;;;;6281718;22;20333;-83
2023/05/25 04:35:57;;;;;;;8.75;4.63;;;;;;;;;;6281738;22;20015;-83
2023/05/25 04:38:24;;;;;;;7.38;4.65;;;;;;;;;;6307336;22;20015;-83
2023/05/25 04:40:50;;;;;;;7.95;5.68;;;;;;;;;;6281629;22;20038;-83
2023/05/25 04:43:19;;;;;;;7.63;4.78;;;;;;;;;;6281462;22;20023;-83
2023/05/25 04:45:45;;;;;;;7.78;4.72;;;;;;;;;;6281512;22;20026;-83
2023/05/25 04:48:12;;;;;;;7.30;5.10;;;;;;;;;;6307152;22;20022;-83
2023/05/25 04:50:41;;;;;;;13.48;6.03;;;;;;;;;;6281380;22;20019;-83
2023/05/25 04:53:07;;;;;;;8.35;5.57;;;;;;;;;;6281384;22;20015;-83
2023/05/25 04:55:33;;;;;;;9.38;5.05;;;;;;;;;;6281594;22;20094;-84
2023/05/25 04:58:00;;;;;;;8.93;5.32;;;;;;;;;;6281465;22;20025;-83
2023/05/25 05:00:27;;;;;;;11.82;5.90;;;;;;;;;;6281279;22;20022;-83
2023/05/25 05:02:55;;;;;;;7.03;5.35;;;;;;;;;;6281357;22;20015;-84
2023/05/25 05:05:21;;;;;;;12.55;6.43;;;;;;;;;;6306769;22;20051;-83
2023/05/25 05:07:47;;;;;;;11.75;6.93;;;;;;;;;;6282355;22;20094;-83
2023/05/25 05:10:13;;;;;;;11.40;7.15;;;;;;;;;;6307651;22;20015;-83
2023/05/25 05:12:40;;;;;;;10.15;7.07;;;;;;;;;;6281623;22;20015;-83
2023/05/25 05:15:06;;;;;;;17.05;7.35;;;;;;;;;;6281234;22;20019;-83
2023/05/25 05:17:32;;;;;;;9.32;6.80;;;;;;;;;;6281302;22;20019;-83
2023/05/25 05:19:59;;;;;;;16.15;8.07;;;;;;;;;;6281266;22;20046;-83
2023/05/25 05:22:26;;;;;;;16.42;7.57;;;;;;;;;;6281177;22;20152;-83
2023/05/25 05:24:52;;;;;;;12.35;7.60;;;;;;;;;;6307236;22;20437;-83
2023/05/25 05:27:18;;;;;;;16.48;8.30;;;;;;;;;;6281084;22;20022;-83
2023/05/25 05:29:44;;;;;;;14.32;7.45;;;;;;;;;;6307832;22;20451;-83
2023/05/25 05:32:10;;;;;;;14.80;8.00;;;;;;;;;;6281389;22;20015;-83
2023/05/25 05:34:36;;;;;;;14.82;8.18;;;;;;;;;;6282049;22;20019;-83
2023/05/25 05:37:03;;;;;;;11.93;7.00;;;;;;;;;;6281339;22;20333;-83
2023/05/25 05:39:29;;;;;;;14.98;7.50;;;;;;;;;;6281022;22;20059;-83
2023/05/25 05:41:55;;;;;;;13.52;7.30;;;;;;;;;;6307148;22;20027;-83
2023/05/25 05:44:21;;;;;;;13.75;8.02;;;;;;;;;;6280576;22;20519;-83
2023/05/25 05:46:47;;;;;;;18.25;7.53;;;;;;;;;;6307662;22;20023;-83
2023/05/25 05:49:13;;;;;;;13.00;7.50;;;;;;;;;;6281137;22;20012;-83
2023/05/25 05:51:39;;;;;;;16.73;8.25;;;;;;;;;;6306717;22;20015;-83
2023/05/25 05:54:05;;;;;;;11.18;7.35;;;;;;;;;;6280916;22;20022;-83
2023/05/25 05:56:32;;;;;;;14.70;7.05;;;;;;;;;;6281817;22;20082;-83
2023/05/25 05:58:58;;;;;;;13.65;7.13;;;;;;;;;;6307728;22;20377;-83
2023/05/25 06:01:24;;;;;;;11.90;6.85;;;;;;;;;;6307690;22;20364;-83
2023/05/25 06:03:53;;;;;;;11.68;7.07;;;;;;;;;;6306912;22;20027;-84
2023/05/25 06:06:19;;;;;;;12.70;7.00;;;;;;;;;;6281560;22;20023;-84
2023/05/25 06:08:45;;;;;;;17.65;7.65;;;;;;;;;;6280813;22;20019;-83
2023/05/25 06:11:11;;;;;;;12.45;7.40;;;;;;;;;;6306062;22;20027;-83
2023/05/25 06:13:37;;;;;;;9.95;7.13;;;;;;;;;;6280713;22;20057;-83
2023/05/25 06:16:03;;;;;;;10.88;7.40;;;;;;;;;;6281713;22;20054;-83
2023/05/25 06:18:29;;;;;;;11.25;7.18;;;;;;;;;;6281843;22;20019;-84
2023/05/25 06:20:55;;;;;;;14.60;7.20;;;;;;;;;;6281782;22;20437;-83
2023/05/25 06:23:22;;;;;;;14.85;7.15;;;;;;;;;;6280737;22;20526;-84
2023/05/25 06:25:48;;;;;;;11.90;6.95;;;;;;;;;;6306652;22;20078;-83
2023/05/25 06:28:15;;;;;;;14.40;7.43;;;;;;;;;;6281074;22;20015;-84
2023/05/25 06:30:41;;;;;;;17.45;7.72;;;;;;;;;;6280784;22;20022;-83
2023/05/25 06:33:07;;;;;;;12.60;5.82;;;;;;;;;;6281033;22;20022;-84
2023/05/25 06:35:33;;;;;;;11.90;5.53;;;;;;;;;;6280964;22;20015;-84
2023/05/25 06:37:59;;;;;;;15.30;6.03;;;;;;;;;;6280767;22;20045;-84
2023/05/25 06:40:25;;;;;;;11.57;5.45;;;;;;;;;;6281724;22;20023;-84
2023/05/25 06:42:51;;;;;;;8.00;5.05;;;;;;;;;;6281142;22;20015;-84
2023/05/25 06:45:17;;;;;;;9.70;5.18;;;;;;;;;;6281190;22;20043;-83
2023/05/25 06:47:43;;;;;;;11.77;5.50;;;;;;;;;;6280871;22;20016;-84
2023/05/25 06:50:11;;;;;;;9.88;4.05;;;;;;;;;;6281779;22;20023;-84
2023/05/25 06:52:37;;;;;;;8.75;4.50;;;;;;;;;;6307492;22;20018;-83
2023/05/25 06:55:04;;;;;;;8.40;4.70;;;;;;;;;;6280944;22;20026;-83
2023/05/25 06:57:30;;;;;;;8.25;4.70;;;;;;;;;;6280651;22;20141;-84
2023/05/25 06:59:56;;;;;;;6.85;3.10;;;;;;;;;;6280619;22;20027;-83
2023/05/25 07:02:22;;;;;;;9.73;3.13;;;;;;;;;;6306333;22;20022;-84
2023/05/25 07:04:48;;;;;;;9.10;3.45;;;;;;;;;;6280684;22;20019;-84
2023/05/25 07:07:14;;;;;;;6.80;2.72;;;;;;;;;;6280658;22;20019;-83
2023/05/25 07:09:40;;;;;;;4.00;1.65;;;;;;;;;;6280348;22;20022;-83
2023/05/25 07:12:08;;;;;;;6.88;2.13;;;;;;;;;;6280790;22;20487;-84
2023/05/25 07:14:35;;;;;;;5.75;2.03;;;;;;;;;;6281596;22;20156;-84
2023/05/25 07:17:01;;;;;;;8.05;2.45;;;;;;;;;;6280447;22;20018;-83
2023/05/25 07:19:27;;;;;;;6.95;2.50;;;;;;;;;;6280651;22;20061;-84
2023/05/25 07:21:53;;;;;;;7.03;2.70;;;;;;;;;;6280559;22;20019;-84
2023/05/25 07:24:19;;;;;;;7.22;2.75;;;;;;;;;;6283110;22;20088;-85
2023/05/25 07:26:46;;;;;;;9.68;1.92;;;;;;;;;;6282793;22;20027;-84
2023/05/25 07:29:12;;;;;;;8.55;2.17;;;;;;;;;;6308233;22;20046;-84
2023/05/25 07:31:38;;;;;;;9.07;2.20;;;;;;;;;;6283267;22;20015;-84
2023/05/25 07:34:04;;;;;;;6.60;2.33;;;;;;;;;;6282588;22;20023;-84
2023/05/25 07:36:30;;;;;;;8.82;2.42;;;;;;;;;;6282660;22;20452;-84
2023/05/25 07:38:57;;;;;;;10.18;2.42;;;;;;;;;;6308444;22;20015;-84
2023/05/25 07:41:23;;;;;;;8.35;2.45;;;;;;;;;;6282219;22;20027;-84
2023/05/25 07:43:51;;;;;;;5.15;2.03;;;;;;;;;;6282253;22;20015;-84
2023/05/25 07:46:19;;;;;;;8.55;1.73;;;;;;;;;;6307929;22;20453;-84
2023/05/25 07:48:45;;;;;;;9.15;2.13;;;;;;;;;;6282865;22;20026;-84
2023/05/25 07:51:12;;;;;;;7.53;1.60;;;;;;;;;;6282735;22;20022;-84
2023/05/25 07:53:38;;;;;;;6.10;1.58;;;;;;;;;;6282153;22;20054;-84
2023/05/25 07:56:04;;;;;;;5.35;1.38;;;;;;;;;;6282412;22;20011;-84
2023/05/25 07:58:31;;;;;;;8.95;1.58;;;;;;;;;;6282175;22;20051;-84
2023/05/25 08:00:57;;;;;;;6.63;1.88;;;;;;;;;;6282034;22;20019;-83
2023/05/25 08:03:23;;;;;;;10.73;2.20;;;;;;;;;;6282916;22;20022;-83
2023/05/25 08:05:49;;;;;;;9.95;2.42;;;;;;;;;;6282122;22;20049;-83
2023/05/25 08:08:16;;;;;;;12.10;2.63;;;;;;;;;;6281607;22;20022;-83
2023/05/25 08:10:42;;;;;;;7.75;1.90;;;;;;;;;;6281438;22;20055;-83
2023/05/25 08:13:08;;;;;;;4.82;1.25;;;;;;;;;;6281954;22;20521;-84
2023/05/25 08:15:34;;;;;;;8.73;2.78;;;;;;;;;;6282404;22;20085;-84
2023/05/25 08:18:02;;;;;;;7.72;2.20;;;;;;;;;;6307759;22;20453;-84
2023/05/25 08:20:28;;;;;;;5.60;1.83;;;;;;;;;;6308829;22;20311;-84
2023/05/25 08:22:54;;;;;;;8.52;2.40;;;;;;;;;;6282074;22;20015;-84
2023/05/25 08:25:21;;;;;;;10.13;2.50;;;;;;;;;;6281837;22;20015;-84
2023/05/25 08:27:47;;;;;;;12.57;2.25;;;;;;;;;;6282837;22;20019;-84
2023/05/25 08:30:14;;;;;;;9.48;2.75;;;;;;;;;;6282823;22;20487;-84
2023/05/25 08:32:40;;;;;;;9.50;1.80;;;;;;;;;;6281830;22;20015;-84
2023/05/25 08:35:06;;;;;;;9.23;1.85;;;;;;;;;;6281736;22;20334;-84
2023/05/25 08:37:33;;;;;;;12.38;2.03;;;;;;;;;;6281820;22;20019;-84
2023/05/25 08:40:01;;;;;;;7.57;1.85;;;;;;;;;;6282097;22;20019;-84
2023/05/25 08:42:27;;;;;;;7.63;2.00;;;;;;;;;;6281439;22;20055;-84
2023/05/25 08:44:54;;;;;;;9.63;2.20;;;;;;;;;;6281953;22;20069;-84
2023/05/25 08:47:22;;;;;;;9.80;1.77;;;;;;;;;;6281637;22;20081;-84
2023/05/25 08:49:49;;;;;;;9.93;2.45;;;;;;;;;;6282010;22;20015;-84
2023/05/25 08:52:19;;;;;;;10.82;1.92;;;;;;;;;;6307352;22;20097;-84
2023/05/25 08:54:47;;;;;;;8.20;1.70;;;;;;;;;;6307292;22;20042;-84
2023/05/25 08:57:13;;;;;;;10.43;2.33;;;;;;;;;;6307266;22;20022;-83
2023/05/25 08:59:47;;;;;;;10.43;1.70;;;;;;;;;;6307309;22;20076;-84
2023/05/25 09:02:19;;;;;;;8.25;1.90;;;;;;;;;;6281771;22;20024;-84
2023/05/25 09:04:45;;;;;;;8.65;1.50;;;;;;;;;;6282439;22;20449;-83
2023/05/25 09:07:12;;;;;;;8.50;1.73;;;;;;;;;;6281807;22;20011;-84
2023/05/25 09:09:39;;;;;;;6.65;1.30;;;;;;;;;;6306831;22;20069;-84
2023/05/25 09:12:06;;;;;;;9.98;2.33;;;;;;;;;;6281361;22;20023;-84
2023/05/25 09:14:33;;;;;;;10.32;2.03;;;;;;;;;;6280941;22;20015;-84
2023/05/25 09:17:00;;;;;;;11.75;1.88;;;;;;;;;;6282272;22;20099;-83
2023/05/25 09:19:26;;;;;;;10.18;2.13;;;;;;;;;;6281724;22;20437;-84
2023/05/25 09:21:52;;;;;;;10.05;1.95;;;;;;;;;;6281361;22;20038;-84
2023/05/25 09:24:21;;;;;;;8.32;1.73;;;;;;;;;;6281227;22;20026;-83
2023/05/25 09:26:48;;;;;;;8.90;1.77;;;;;;;;;;6306891;22;20345;-84
2023/05/25 09:29:15;;;;;;;11.20;2.28;;;;;;;;;;6306944;22;20380;-83
2023/05/25 09:31:42;;;;;;;11.32;2.35;;;;;;;;;;6306996;22;20445;-84
2023/05/25 09:34:12;;;;;;;11.73;2.08;;;;;;;;;;6281113;22;20019;-84
2023/05/25 09:36:40;;;;;;;9.45;1.75;;;;;;;;;;6307840;22;20022;-84
2023/05/25 09:39:12;;;;;;;12.57;2.17;;;;;;;;;;6306954;22;20464;-84
2023/05/25 09:41:41;;;;;;;11.00;2.90;;;;;;;;;;6282075;22;20299;-84
2023/05/25 09:44:07;;;;;;;20.35;3.08;;;;;;;;;;6281118;22;20019;-84
2023/05/25 09:46:37;;;;;;;14.70;3.33;;;;;;;;;;6280542;22;20037;-84
2023/05/25 09:49:04;;;;;;;13.07;2.50;;;;;;;;;;6306859;22;20089;-83
2023/05/25 09:51:32;;;;;;;14.50;2.70;;;;;;;;;;6306488;22;20046;-83
2023/05/25 09:53:59;;;;;;;11.18;2.38;;;;;;;;;;6280957;22;20018;-83
2023/05/25 09:56:30;;;;;;;9.57;2.22;;;;;;;;;;6280968;22;20100;-83
2023/05/25 09:58:56;;;;;;;13.10;2.35;;;;;;;;;;6281873;22;20023;-84
2023/05/25 10:01:23;;;;;;;14.90;3.05;;;;;;;;;;6280979;22;20098;-83
2023/05/25 10:03:49;;;;;;;15.98;3.22;;;;;;;;;;6281483;22;20016;-85
2023/05/25 10:06:16;;;;;;;14.23;3.35;;;;;;;;;;6281155;22;20015;-84
2023/05/25 10:08:47;;;;;;;14.55;3.30;;;;;;;;;;6280871;22;20068;-84
2023/05/25 10:11:13;;;;;;;11.98;2.60;;;;;;;;;;6280556;22;20092;-84
2023/05/25 10:13:40;;;;;;;11.18;2.70;;;;;;;;;;6280726;22;20070;-84
2023/05/25 10:16:08;;;;;;;14.68;2.60;;;;;;;;;;6280711;22;20011;-84
2023/05/25 10:18:35;;;;;;;11.73;2.90;;;;;;;;;;6280441;22;20046;-84
2023/05/25 10:21:03;;;;;;;14.32;3.00;;;;;;;;;;6280859;22;20015;-83
2023/05/25 10:23:36;;;;;;;13.07;2.83;;;;;;;;;;6306817;22;20505;-84
2023/05/25 10:26:04;;;;;;;15.50;3.20;;;;;;;;;;6306543;22;20016;-85
2023/05/25 10:28:37;;;;;;;15.00;3.38;;;;;;;;;;6280337;22;20026;-83
2023/05/25 10:31:04;;;;;;;12.85;3.65;;;;;;;;;;6280300;22;20019;-84
2023/05/25 10:33:31;;;;;;;14.02;3.42;;;;;;;;;;6281699;22;20019;-83
2023/05/25 10:35:57;;;;;;;14.18;3.05;;;;;;;;;;6280488;22;20015;-84
2023/05/25 10:38:25;;;;;;;15.07;3.03;;;;;;;;;;6280949;22;20054;-84
2023/05/25 10:40:52;;;;;;;13.05;3.33;;;;;;;;;;6307577;22;20329;-84
2023/05/25 10:43:18;;;;;;;11.75;3.13;;;;;;;;;;6280692;22;20398;-83
2023/05/25 10:45:45;;;;;;;14.88;3.33;;;;;;;;;;6280930;22;20345;-84
2023/05/25 10:48:11;;;;;;;14.32;3.05;;;;;;;;;;6306091;22;20015;-84
2023/05/25 10:50:37;;;;;;;16.98;4.05;;;;;;;;;;6306411;22;20424;-84
2023/05/25 10:53:12;;;;;;;12.45;3.20;;;;;;;;;;6280524;22;20425;-84
2023/05/25 10:55:53;;;;;;;13.15;3.38;;;;;;;;;;6281619;22;20437;-84
2023/05/25 10:58:20;;;;;;;13.50;3.42;;;;;;;;;;6281458;22;20069;-84
2023/05/25 11:01:16;;;;;;;14.68;2.97;;;;;;;;;;6309479;22;20119;-85
2023/05/25 11:03:42;;;;;;;;;;;;;;;;;;6289076;22;20046;-84
2023/05/25 11:06:09;;;;;;;15.15;3.45;;;;;;;;;;6308374;22;19914;-84
2023/05/25 11:08:48;;;;;;;10.40;2.35;;;;;;;;;;6282872;22;20026;-84
2023/05/25 11:11:14;;;;;;;12.30;3.45;;;;;;;;;;6282338;22;20625;-84
2023/05/25 11:13:44;;;;;;;12.60;3.03;;;;;;;;;;6282971;22;20457;-84
2023/05/25 11:16:17;;;;;;;14.68;3.50;;;;;;;;;;6282062;22;20085;-84
2023/05/25 11:18:45;;;;;;;12.02;3.65;;;;;;;;;;6283550;22;20367;-83
2023/05/25 11:21:11;;;;;;;13.90;4.10;;;;;;;;;;6282116;22;20072;-83
2023/05/25 11:23:59;;;;;;;13.93;3.03;;;;;;;;;;6282530;22;20441;-83
2023/05/25 11:26:29;;;;;;;13.65;3.03;;;;;;;;;;6282463;22;20015;-84
2023/05/25 11:28:57;;;;;;;18.40;3.35;;;;;;;;;;6282378;22;20023;-83
2023/05/25 11:31:31;;;;;;;14.88;3.63;;;;;;;;;;6282807;22;20019;-83
2023/05/25 11:33:59;;;;;;;12.75;3.15;;;;;;;;;;6282588;22;20160;-83
2023/05/25 11:36:26;;;;;;;12.95;3.10;;;;;;;;;;6282296;22;20094;-84
2023/05/25 11:38:53;;;;;;;12.25;3.25;;;;;;;;;;6282636;22;20022;-84
2023/05/25 11:41:20;;;;;;;12.23;3.10;;;;;;;;;;6282608;22;20070;-84
2023/05/25 11:43:47;;;;;;;12.90;3.05;;;;;;;;;;6282929;22;20085;-83
2023/05/25 11:46:13;;;;;;;12.77;3.38;;;;;;;;;;6282247;22;20011;-83
2023/05/25 11:48:43;;;;;;;12.68;3.25;;;;;;;;;;6308028;22;20049;-83
2023/05/25 11:51:09;;;;;;;12.57;3.33;;;;;;;;;;6307970;22;20463;-83
2023/05/25 11:53:40;;;;;;;12.70;3.05;;;;;;;;;;6308010;22;20015;-83
2023/05/25 11:56:06;;;;;;;14.57;3.45;;;;;;;;;;6307888;22;20444;-83
2023/05/25 11:58:33;;;;;;;13.52;3.25;;;;;;;;;;6282300;22;20090;-83
2023/05/25 12:01:18;;;;;;;12.00;3.13;;;;;;;;;;6282463;22;20046;-85
2023/05/25 12:03:45;;;;;;;7.32;2.30;;;;;;;;;;6308057;22;20045;-85
2023/05/25 12:06:24;;;;;;;16.17;3.50;;;;;;;;;;6281967;22;20022;-85
2023/05/25 12:08:50;;;;;;;13.07;3.83;;;;;;;;;;6307667;22;20015;-85
2023/05/25 12:11:16;;;;;;;8.57;2.58;;;;;;;;;;6306698;22;20015;-85
2023/05/25 12:13:43;;;;;;;7.57;2.25;;;;;;;;;;6309298;22;20019;-84
2023/05/25 12:16:09;;;;;;;11.45;2.75;;;;;;;;;;6308572;22;20015;-84
2023/05/25 12:18:35;;;;;;;10.55;2.85;;;;;;;;;;6282733;22;20019;-84
2023/05/25 12:21:06;;;;;;;12.75;3.20;;;;;;;;;;6282827;22;20011;-84
2023/05/25 12:23:33;;;;;;;11.73;3.30;;;;;;;;;;6282289;22;20073;-84
2023/05/25 12:26:08;;;;;;;10.93;2.42;;;;;;;;;;6281837;22;20016;-85
2023/05/25 12:28:34;;;;;;;13.40;3.42;;;;;;;;;;6281785;22;20349;-85
2023/05/25 12:31:19;;;;;;;10.32;2.90;;;;;;;;;;6281813;22;20106;-84
2023/05/25 12:33:45;;;;;;;12.18;3.28;;;;;;;;;;6281691;22;20030;-85
2023/05/25 12:36:12;;;;;;;15.00;3.95;;;;;;;;;;6307799;22;20011;-84
2023/05/25 12:38:38;;;;;;;10.88;2.97;;;;;;;;;;6282785;22;20019;-85
2023/05/25 12:41:07;;;;;;;11.85;3.55;;;;;;;;;;6307540;22;20019;-84
2023/05/25 12:43:37;;;;;;;10.40;3.17;;;;;;;;;;6281665;22;20402;-85
2023/05/25 12:46:03;;;;;;;13.90;3.10;;;;;;;;;;6282718;22;20015;-84
2023/05/25 12:48:30;;;;;;;10.82;2.90;;;;;;;;;;6281796;22;20094;-84
2023/05/25 12:50:57;;;;;;;12.40;3.17;;;;;;;;;;6307307;22;20011;-85
2023/05/25 12:53:24;;;;;;;12.02;3.00;;;;;;;;;;6307669;22;20016;-84
2023/05/25 12:55:50;;;;;;;10.35;2.95;;;;;;;;;;6281409;22;20015;-85
2023/05/25 12:58:29;;;;;;;11.30;3.63;;;;;;;;;;6281521;22;20053;-85
2023/05/25 13:00:55;;;;;;;11.18;3.50;;;;;;;;;;6308215;22;20055;-85
2023/05/25 13:03:21;;;;;;;8.77;2.78;;;;;;;;;;6307475;22;20073;-85
2023/05/25 13:05:47;;;;;;;9.40;3.13;;;;;;;;;;6282030;22;20023;-84
2023/05/25 13:08:14;;;;;;;8.23;2.58;;;;;;;;;;6281682;22;20098;-84
2023/05/25 13:10:40;;;;;;;12.45;3.45;;;;;;;;;;6281185;22;20019;-85
2023/05/25 13:13:06;;;;;;;12.10;3.08;;;;;;;;;;6307549;22;20019;-85
2023/05/25 13:15:32;;;;;;;12.93;3.05;;;;;;;;;;6281238;22;20112;-84
2023/05/25 13:17:59;;;;;;;14.18;3.47;;;;;;;;;;6281391;22;20380;-84
2023/05/25 13:20:25;;;;;;;13.45;3.08;;;;;;;;;;6307287;22;20086;-85
2023/05/25 13:22:52;;;;;;;12.98;3.35;;;;;;;;;;6281588;22;20015;-85
2023/05/25 13:25:20;;;;;;;11.05;2.85;;;;;;;;;;6280756;22;20019;-84
2023/05/25 13:27:48;;;;;;;13.30;3.88;;;;;;;;;;6281512;22;20098;-85
2023/05/25 13:30:14;;;;;;;14.30;3.75;;;;;;;;;;6306988;22;20015;-84
2023/05/25 13:32:44;;;;;;;12.07;2.67;;;;;;;;;;6307910;22;20046;-85
2023/05/25 13:35:17;;;;;;;12.45;3.85;;;;;;;;;;6306770;22;20019;-85
2023/05/25 13:37:43;;;;;;;12.30;3.10;;;;;;;;;;6281149;22;20023;-85
2023/05/25 13:40:09;;;;;;;11.68;3.13;;;;;;;;;;6281381;22;20068;-85
2023/05/25 13:42:36;;;;;;;10.43;3.70;;;;;;;;;;6280680;22;20023;-85
2023/05/25 13:45:02;;;;;;;12.45;3.90;;;;;;;;;;6306737;22;20011;-85
2023/05/25 13:47:28;;;;;;;12.13;3.60;;;;;;;;;;6281104;22;20015;-85
2023/05/25 13:49:54;;;;;;;11.77;3.25;;;;;;;;;;6306763;22;20072;-85
2023/05/25 13:52:20;;;;;;;14.10;3.97;;;;;;;;;;6281000;22;20015;-86
2023/05/25 13:54:46;;;;;;;11.38;3.47;;;;;;;;;;6280812;22;20019;-86
2023/05/25 13:57:12;;;;;;;11.30;3.08;;;;;;;;;;6306577;22;20476;-85
2023/05/25 13:59:38;;;;;;;13.27;3.65;;;;;;;;;;6281209;22;20072;-85
2023/05/25 14:02:04;;;;;;;17.50;3.97;;;;;;;;;;6306951;22;20022;-85
2023/05/25 14:04:31;;;;;;;14.38;3.53;;;;;;;;;;6306537;22;20016;-85
2023/05/25 14:06:57;;;;;;;15.13;3.75;;;;;;;;;;6280901;22;20064;-86
2023/05/25 14:09:23;;;;;;;12.95;3.85;;;;;;;;;;6306616;22;20341;-86
2023/05/25 14:11:51;;;;;;;11.93;3.47;;;;;;;;;;6280769;22;20057;-86
2023/05/25 14:14:17;;;;;;;14.70;4.30;;;;;;;;;;6280722;22;20100;-85
2023/05/25 14:16:43;;;;;;;13.50;3.83;;;;;;;;;;6306527;22;20097;-85
2023/05/25 14:19:09;;;;;;;13.20;3.88;;;;;;;;;;6306638;22;20094;-85
2023/05/25 14:21:36;;;;;;;17.27;3.92;;;;;;;;;;6306847;22;20106;-85
2023/05/25 14:24:02;;;;;;;15.80;3.80;;;;;;;;;;6306118;22;20015;-85
2023/05/25 14:26:28;;;;;;;11.70;3.45;;;;;;;;;;6281695;22;20094;-85
2023/05/25 14:28:54;;;;;;;13.80;3.80;;;;;;;;;;6306501;22;20480;-86
2023/05/25 14:31:20;;;;;;;15.73;4.38;;;;;;;;;;6281189;22;20464;-86
2023/05/25 14:33:46;;;;;;;11.60;3.33;;;;;;;;;;6280411;22;20015;-85
2023/05/25 14:36:12;;;;;;;11.93;3.20;;;;;;;;;;6306026;22;20064;-86